createdAt,value
2022-12-25T00:00:16.684Z,9.33
2022-12-25T00:03:08.332Z,9.14
2022-12-25T00:05:39.071Z,9.18
2022-12-25T00:08:07.921Z,9.29
2022-12-25T00:10:41.340Z,9.29
2022-12-25T00:13:12.024Z,9.12
2022-12-25T00:15:41.731Z,9.12
2022-12-25T00:18:09.219Z,9.05
2022-12-25T00:20:36.822Z,9.03
2022-12-25T00:23:04.120Z,9.19
2022-12-25T00:25:31.579Z,9.19
2022-12-25T00:27:58.712Z,9.18
2022-12-25T00:30:26.288Z,9.67
2022-12-25T00:32:53.344Z,9.36
2022-12-25T00:35:20.721Z,9.31
2022-12-25T00:37:47.839Z,9.19
2022-12-25T00:40:15.574Z,9.02
2022-12-25T00:42:43.143Z,8.96
2022-12-25T00:45:10.755Z,8.84
2022-12-25T00:47:38.912Z,8.82
2022-12-25T00:50:06.955Z,8.76
2022-12-25T00:52:34.145Z,8.86
2022-12-25T00:55:01.611Z,8.93
2022-12-25T00:57:28.715Z,8.88
2022-12-25T00:59:58.098Z,8.93
2022-12-25T01:02:25.998Z,8.85
2022-12-25T01:04:56.411Z,8.90
2022-12-25T01:07:26.231Z,9.01
2022-12-25T01:10:12.200Z,9.06
2022-12-25T01:12:41.840Z,8.89
2022-12-25T01:15:12.990Z,9.03
2022-12-25T01:17:40.348Z,9.07
2022-12-25T01:20:11.724Z,8.94
2022-12-25T01:22:39.105Z,8.86
2022-12-25T01:25:07.251Z,8.90
2022-12-25T01:27:34.359Z,8.83
2022-12-25T01:30:01.823Z,8.62
2022-12-25T01:32:29.002Z,8.63
2022-12-25T01:34:58.042Z,8.58
2022-12-25T01:37:25.553Z,8.48
2022-12-25T01:39:53.021Z,8.42
2022-12-25T01:42:23.867Z,8.48
2022-12-25T01:44:51.552Z,8.61
2022-12-25T01:47:19.383Z,8.55
2022-12-25T01:49:50.300Z,8.52
2022-12-25T01:52:25.354Z,8.56
2022-12-25T01:55:04.137Z,8.35
2022-12-25T01:57:36.300Z,8.27
2022-12-25T02:00:09.601Z,8.27
2022-12-25T02:02:38.454Z,8.26
2022-12-25T02:05:25.103Z,8.32
2022-12-25T02:07:53.164Z,8.25
2022-12-25T02:10:21.128Z,8.05
2022-12-25T02:12:48.865Z,8.17
2022-12-25T02:15:21.113Z,8.22
2022-12-25T02:17:57.230Z,8.39
2022-12-25T02:20:37.238Z,8.56
2022-12-25T02:23:23.291Z,8.80
2022-12-25T02:26:12.526Z,8.81
2022-12-25T02:29:02.969Z,8.86
2022-12-25T02:32:07.897Z,8.65
2022-12-25T02:34:49.884Z,8.63
2022-12-25T02:37:34.088Z,8.49
2022-12-25T02:40:10.400Z,8.41
2022-12-25T02:43:20.691Z,8.44
2022-12-25T02:46:12.499Z,8.35
2022-12-25T02:49:17.859Z,8.75
2022-12-25T02:52:08.442Z,8.81
2022-12-25T02:55:00.502Z,8.79
2022-12-25T02:57:52.111Z,8.68
2022-12-25T03:00:39.938Z,8.71
2022-12-25T03:03:28.740Z,9.00
2022-12-25T03:06:19.383Z,8.88
2022-12-25T03:08:50.051Z,8.85
2022-12-25T03:11:32.463Z,8.79
2022-12-25T03:14:21.750Z,8.68
2022-12-25T03:16:53.809Z,8.74
2022-12-25T03:19:50.445Z,8.59
2022-12-25T03:22:45.968Z,8.46
2022-12-25T03:25:32.141Z,8.73
2022-12-25T03:28:00.790Z,8.73
2022-12-25T03:31:09.696Z,8.83
2022-12-25T03:34:17.858Z,8.67
2022-12-25T03:37:22.008Z,8.63
2022-12-25T03:39:55.551Z,8.58
2022-12-25T03:42:54.714Z,8.58
2022-12-25T03:45:47.548Z,8.74
2022-12-25T03:48:35.515Z,8.69
2022-12-25T03:51:28.450Z,8.92
2022-12-25T03:54:18.089Z,8.69
2022-12-25T03:57:04.899Z,8.81
2022-12-25T03:59:50.524Z,8.86
2022-12-25T04:02:37.033Z,8.82
2022-12-25T04:05:23.737Z,8.90
2022-12-25T04:08:09.575Z,8.68
2022-12-25T04:10:55.864Z,8.61
2022-12-25T04:13:42.128Z,8.57
2022-12-25T04:16:27.871Z,8.63
2022-12-25T04:19:13.749Z,8.54
2022-12-25T04:21:59.420Z,8.60
2022-12-25T04:25:04.429Z,8.68
2022-12-25T04:27:50.140Z,8.53
2022-12-25T04:30:36.144Z,8.53
2022-12-25T04:33:21.818Z,8.54
2022-12-25T04:36:15.942Z,8.49
2022-12-25T04:38:43.386Z,8.52
2022-12-25T04:41:13.085Z,8.54
2022-12-25T04:43:40.892Z,8.60
2022-12-25T04:46:08.389Z,8.61
2022-12-25T04:48:36.713Z,8.58
2022-12-25T04:51:25.250Z,8.84
2022-12-25T04:53:54.944Z,8.97
2022-12-25T04:56:23.281Z,8.86
2022-12-25T04:58:50.485Z,8.77
2022-12-25T05:01:19.674Z,8.65
2022-12-25T05:03:47.166Z,8.56
2022-12-25T05:06:14.674Z,8.46
2022-12-25T05:08:41.849Z,8.41
2022-12-25T05:11:12.924Z,8.45
2022-12-25T05:13:40.573Z,8.52
2022-12-25T05:16:10.341Z,8.41
2022-12-25T05:18:37.544Z,8.46
2022-12-25T05:21:05.412Z,8.38
2022-12-25T05:23:32.841Z,8.33
2022-12-25T05:26:04.601Z,8.40
2022-12-25T05:28:31.733Z,8.62
2022-12-25T05:30:59.331Z,8.63
2022-12-25T05:33:27.830Z,8.58
2022-12-25T05:35:55.177Z,8.81
2022-12-25T05:38:25.963Z,8.70
2022-12-25T05:40:54.036Z,8.58
2022-12-25T05:43:22.108Z,8.61
2022-12-25T05:45:50.079Z,8.63
2022-12-25T05:48:17.620Z,8.74
2022-12-25T05:50:45.176Z,8.68
2022-12-25T05:53:14.658Z,8.80
2022-12-25T05:55:43.828Z,8.86
2022-12-25T05:58:12.928Z,8.65
2022-12-25T06:00:43.507Z,8.65
2022-12-25T06:03:10.834Z,8.54
2022-12-25T06:05:39.541Z,8.46
2022-12-25T06:08:06.773Z,8.32
2022-12-25T06:10:34.172Z,8.29
2022-12-25T06:13:03.833Z,8.37
2022-12-25T06:15:31.265Z,8.49
2022-12-25T06:18:01.645Z,8.46
2022-12-25T06:20:29.155Z,8.39
2022-12-25T06:22:56.406Z,8.28
2022-12-25T06:25:24.029Z,8.25
2022-12-25T06:27:51.168Z,8.30
2022-12-25T06:30:19.919Z,8.38
2022-12-25T06:32:47.022Z,8.47
2022-12-25T06:35:14.600Z,8.38
2022-12-25T06:37:42.330Z,8.40
2022-12-25T06:40:11.179Z,8.57
2022-12-25T06:42:39.061Z,8.41
2022-12-25T06:45:07.405Z,8.65
2022-12-25T06:47:34.594Z,8.77
2022-12-25T06:50:02.500Z,8.75
2022-12-25T06:52:32.445Z,8.86
2022-12-25T06:54:59.940Z,9.05
2022-12-25T06:57:27.055Z,9.20
2022-12-25T06:59:55.468Z,9.21
2022-12-25T07:02:24.980Z,9.14
2022-12-25T07:04:54.719Z,9.21
2022-12-25T07:07:23.784Z,9.66
2022-12-25T07:09:51.190Z,11.23
2022-12-25T07:12:23.735Z,12.62
2022-12-25T07:14:55.240Z,13.41
2022-12-25T07:17:23.288Z,13.55
2022-12-25T07:19:51.230Z,13.88
2022-12-25T07:22:18.525Z,15.39
2022-12-25T07:24:46.210Z,16.71
2022-12-25T07:27:13.516Z,17.74
2022-12-25T07:29:40.937Z,18.25
2022-12-25T07:32:08.853Z,19.24
2022-12-25T07:34:36.325Z,19.08
2022-12-25T07:37:03.453Z,18.28
2022-12-25T07:39:30.927Z,17.50
2022-12-25T07:41:58.032Z,17.39
2022-12-25T07:44:28.198Z,17.42
2022-12-25T07:46:58.223Z,17.73
2022-12-25T07:49:25.665Z,18.00
2022-12-25T07:51:52.913Z,20.13
2022-12-25T07:54:20.950Z,20.58
2022-12-25T07:56:52.370Z,21.14
2022-12-25T07:59:20.990Z,21.43
2022-12-25T08:01:50.569Z,21.48
2022-12-25T08:04:18.585Z,22.48
2022-12-25T08:06:45.778Z,22.42
2022-12-25T08:09:13.503Z,23.78
2022-12-25T08:11:45.726Z,24.16
2022-12-25T08:14:13.863Z,23.12
2022-12-25T08:16:42.362Z,24.44
2022-12-25T08:19:10.251Z,24.64
2022-12-25T08:21:38.306Z,24.61
2022-12-25T08:24:06.294Z,24.41
2022-12-25T08:26:33.368Z,24.76
2022-12-25T08:29:00.826Z,24.47
2022-12-25T08:31:30.224Z,22.29
2022-12-25T08:33:58.602Z,22.40
2022-12-25T08:36:25.917Z,21.67
2022-12-25T08:39:00.411Z,20.97
2022-12-25T08:41:30.429Z,19.75
2022-12-25T08:43:58.212Z,18.41
2022-12-25T08:46:25.473Z,18.00
2022-12-25T08:48:53.035Z,18.48
2022-12-25T08:51:21.814Z,17.87
2022-12-25T08:53:51.206Z,17.25
2022-12-25T08:56:19.810Z,17.24
2022-12-25T08:58:48.132Z,16.96
2022-12-25T09:01:15.548Z,16.74
2022-12-25T09:03:43.802Z,16.33
2022-12-25T09:06:16.379Z,16.03
2022-12-25T09:08:49.120Z,15.87
2022-12-25T09:11:19.363Z,15.86
2022-12-25T09:13:49.027Z,15.19
2022-12-25T09:16:20.493Z,14.78
2022-12-25T09:18:48.491Z,14.42
2022-12-25T09:21:17.061Z,14.56
2022-12-25T09:23:44.729Z,14.33
2022-12-25T09:26:16.056Z,14.37
2022-12-25T09:28:50.531Z,14.34
2022-12-25T09:31:18.240Z,14.48
2022-12-25T09:33:45.701Z,14.49
2022-12-25T09:36:12.802Z,14.48
2022-12-25T09:38:40.516Z,14.45
2022-12-25T09:41:27.194Z,14.46
2022-12-25T09:44:03.978Z,14.22
2022-12-25T09:46:42.151Z,13.81
2022-12-25T09:49:21.372Z,14.03
2022-12-25T09:51:55.134Z,13.78
2022-12-25T09:54:36.738Z,13.53
2022-12-25T09:57:04.183Z,14.13
2022-12-25T09:59:32.741Z,14.56
2022-12-25T10:02:37.247Z,15.53
2022-12-25T10:05:23.464Z,15.82
2022-12-25T10:07:59.239Z,16.03
2022-12-25T10:10:26.596Z,16.56
2022-12-25T10:13:23.759Z,16.75
2022-12-25T10:15:54.153Z,16.83
2022-12-25T10:18:39.498Z,16.80
2022-12-25T10:21:13.570Z,16.17
2022-12-25T10:23:46.310Z,15.72
2022-12-25T10:26:22.685Z,15.61
2022-12-25T10:28:58.882Z,15.71
2022-12-25T10:31:29.873Z,15.62
2022-12-25T10:33:57.661Z,15.69
2022-12-25T10:36:27.539Z,15.91
2022-12-25T10:38:57.299Z,16.21
2022-12-25T10:41:31.686Z,16.33
2022-12-25T10:43:58.993Z,16.37
2022-12-25T10:46:29.377Z,16.63
2022-12-25T10:49:02.274Z,16.59
2022-12-25T10:51:32.809Z,16.84
2022-12-25T10:54:02.139Z,16.90
2022-12-25T10:56:30.027Z,16.98
2022-12-25T10:59:07.430Z,17.62
2022-12-25T11:01:55.698Z,18.43
2022-12-25T11:04:28.847Z,19.10
2022-12-25T11:07:22.049Z,20.07
2022-12-25T11:09:55.411Z,20.89
2022-12-25T11:12:36.040Z,21.77
2022-12-25T11:15:24.450Z,22.15
2022-12-25T11:17:51.902Z,22.27
2022-12-25T11:20:20.719Z,22.81
2022-12-25T11:22:49.707Z,23.08
2022-12-25T11:25:26.194Z,23.15
2022-12-25T11:27:58.572Z,23.85
2022-12-25T11:30:25.920Z,24.13
2022-12-25T11:32:56.285Z,23.68
2022-12-25T11:35:31.123Z,23.14
2022-12-25T11:37:58.751Z,23.10
2022-12-25T11:40:40.559Z,23.49
2022-12-25T11:43:15.936Z,23.66
2022-12-25T11:45:49.161Z,23.94
2022-12-25T11:48:23.649Z,23.42
2022-12-25T11:50:55.896Z,22.49
2022-12-25T11:53:39.779Z,22.27
2022-12-25T11:56:28.736Z,22.61
2022-12-25T11:59:18.746Z,22.75
2022-12-25T12:01:49.025Z,22.76
2022-12-25T12:04:31.740Z,23.09
2022-12-25T12:07:15.084Z,23.30
2022-12-25T12:09:54.773Z,22.73
2022-12-25T12:12:55.009Z,21.83
2022-12-25T12:15:23.083Z,21.79
2022-12-25T12:17:51.104Z,22.42
2022-12-25T12:20:33.029Z,22.24
2022-12-25T12:23:03.537Z,22.32
2022-12-25T12:25:31.367Z,22.70
2022-12-25T12:28:05.223Z,22.29
2022-12-25T12:30:35.750Z,22.20
2022-12-25T12:33:07.114Z,21.98
2022-12-25T12:35:41.224Z,21.91
2022-12-25T12:38:15.646Z,22.43
2022-12-25T12:40:52.633Z,21.45
2022-12-25T12:43:46.794Z,20.73
2022-12-25T12:46:16.773Z,19.85
2022-12-25T12:48:47.917Z,20.46
2022-12-25T12:51:29.200Z,20.27
2022-12-25T12:54:27.600Z,20.75
2022-12-25T12:57:03.343Z,20.24
2022-12-25T12:59:37.975Z,20.10
2022-12-25T13:02:30.152Z,20.17
2022-12-25T13:05:36.604Z,20.13
2022-12-25T13:08:19.524Z,19.70
2022-12-25T13:11:04.150Z,19.69
2022-12-25T13:13:36.220Z,19.44
2022-12-25T13:16:04.325Z,19.57
2022-12-25T13:18:33.984Z,18.98
2022-12-25T13:21:05.121Z,18.85
2022-12-25T13:23:37.589Z,18.13
2022-12-25T13:26:11.772Z,18.83
2022-12-25T13:28:39.468Z,19.13
2022-12-25T13:31:13.455Z,19.40
2022-12-25T13:33:46.379Z,19.11
2022-12-25T13:36:14.745Z,18.85
2022-12-25T13:38:48.987Z,17.61
2022-12-25T13:41:38.174Z,16.93
2022-12-25T13:44:18.648Z,17.43
2022-12-25T13:46:47.534Z,17.54
2022-12-25T13:49:22.406Z,17.94
2022-12-25T13:51:50.826Z,18.37
2022-12-25T13:54:18.841Z,18.27
2022-12-25T13:56:55.958Z,17.94
2022-12-25T13:59:25.583Z,16.96
2022-12-25T14:01:54.272Z,16.70
2022-12-25T14:04:25.489Z,16.95
2022-12-25T14:06:53.270Z,17.12
2022-12-25T14:09:20.848Z,16.60
2022-12-25T14:11:52.855Z,16.71
2022-12-25T14:14:26.169Z,15.98
2022-12-25T14:16:57.126Z,15.83
2022-12-25T14:19:34.495Z,15.72
2022-12-25T14:22:18.441Z,15.57
2022-12-25T14:24:46.073Z,15.29
2022-12-25T14:27:25.493Z,15.28
2022-12-25T14:29:56.987Z,15.14
2022-12-25T14:32:44.018Z,14.54
2022-12-25T14:35:15.753Z,14.03
2022-12-25T14:37:49.188Z,13.74
2022-12-25T14:40:37.906Z,13.42
2022-12-25T14:43:29.909Z,13.01
2022-12-25T14:46:24.170Z,12.75
2022-12-25T14:49:07.331Z,12.45
2022-12-25T14:54:38.998Z,11.94
2022-12-25T14:57:07.131Z,11.65
2022-12-25T14:59:34.577Z,11.52
2022-12-25T15:02:02.200Z,11.23
2022-12-25T15:04:54.041Z,11.12
2022-12-25T15:07:31.692Z,11.08
2022-12-25T15:10:28.706Z,10.88
2022-12-25T15:12:46.366Z,10.86
2022-12-25T15:15:13.523Z,10.64
2022-12-25T15:17:42.085Z,10.76
2022-12-25T15:20:37.468Z,10.88
2022-12-25T15:23:21.024Z,10.91
2022-12-25T15:29:00.907Z,11.00
2022-12-25T15:31:46.712Z,10.80
2022-12-25T15:34:21.071Z,10.70
2022-12-25T15:36:48.899Z,10.47
2022-12-25T15:39:16.357Z,10.38
2022-12-25T15:42:02.263Z,10.29
2022-12-25T15:44:29.931Z,10.36
2022-12-25T15:46:57.993Z,10.30
2022-12-25T15:49:25.428Z,10.17
2022-12-25T15:51:52.572Z,10.36
2022-12-25T15:54:19.989Z,10.26
2022-12-25T15:56:52.214Z,10.49
2022-12-25T15:59:21.214Z,10.18
2022-12-25T16:06:05.103Z,10.44
2022-12-25T16:08:32.553Z,10.49
2022-12-25T16:11:00.604Z,10.13
2022-12-25T16:13:31.284Z,10.08
2022-12-25T16:15:58.862Z,9.82
2022-12-25T16:18:26.136Z,10.08
2022-12-25T16:20:55.117Z,9.95
2022-12-25T16:23:22.800Z,10.16
2022-12-25T16:25:50.737Z,9.98
2022-12-25T16:28:18.956Z,9.93
2022-12-25T16:30:46.457Z,9.93
2022-12-25T16:33:15.666Z,9.80
2022-12-25T16:35:44.323Z,9.76
2022-12-25T16:38:11.904Z,9.66
2022-12-25T16:40:40.014Z,9.56
2022-12-25T16:43:07.361Z,9.56
2022-12-25T16:45:39.796Z,9.49
2022-12-25T16:48:08.788Z,9.58
2022-12-25T16:50:39.437Z,9.72
2022-12-25T16:53:07.903Z,9.67
2022-12-25T16:55:37.812Z,9.68
2022-12-25T16:58:06.027Z,9.61
2022-12-25T17:00:33.759Z,9.53
2022-12-25T17:03:01.636Z,9.64
2022-12-25T17:05:29.551Z,9.50
2022-12-25T17:07:56.705Z,9.70
2022-12-25T17:10:24.162Z,9.80
2022-12-25T17:12:51.296Z,9.95
2022-12-25T17:15:18.887Z,9.81
2022-12-25T17:17:45.962Z,9.78
2022-12-25T17:20:13.656Z,9.75
2022-12-25T17:22:41.090Z,9.87
2022-12-25T17:25:09.564Z,9.84
2022-12-25T17:27:37.713Z,9.62
2022-12-25T17:30:05.688Z,9.57
2022-12-25T17:32:34.429Z,9.62
2022-12-25T17:35:03.641Z,9.58
2022-12-25T17:37:32.141Z,9.79
2022-12-25T17:39:59.640Z,9.88
2022-12-25T17:42:26.765Z,9.70
2022-12-25T17:44:54.385Z,9.81
2022-12-25T17:47:21.555Z,9.70
2022-12-25T17:49:50.422Z,9.71
2022-12-25T17:52:17.822Z,9.71
2022-12-25T17:54:45.617Z,9.90
2022-12-25T17:57:13.100Z,9.83
2022-12-25T17:59:41.670Z,9.86
2022-12-25T18:02:09.309Z,9.95
2022-12-25T18:04:37.172Z,9.94
2022-12-25T18:07:04.742Z,9.93
2022-12-25T18:09:32.290Z,9.81
2022-12-25T18:12:02.313Z,9.91
2022-12-25T18:14:29.746Z,9.90
2022-12-25T18:16:57.848Z,10.03
2022-12-25T18:19:25.327Z,9.88
2022-12-25T18:21:52.683Z,10.05
2022-12-25T18:24:21.178Z,9.75
2022-12-25T18:26:49.606Z,9.76
2022-12-25T18:29:18.304Z,9.77
2022-12-25T18:31:45.888Z,9.70
2022-12-25T18:34:13.513Z,9.55
2022-12-25T18:36:40.626Z,9.53
2022-12-25T18:39:26.567Z,9.48
2022-12-25T18:42:12.383Z,9.56
2022-12-25T18:44:40.112Z,9.42
2022-12-25T18:47:08.627Z,9.54
2022-12-25T18:49:36.150Z,9.50
2022-12-25T18:52:49.553Z,9.55
2022-12-25T18:54:53.138Z,9.61
2022-12-25T18:57:20.480Z,9.93
2022-12-25T18:59:48.001Z,9.88
2022-12-25T19:02:16.487Z,9.68
2022-12-25T19:04:44.598Z,9.56
2022-12-25T19:07:12.670Z,9.70
2022-12-25T19:09:40.335Z,9.65
2022-12-25T19:12:07.523Z,9.65
2022-12-25T19:14:47.477Z,9.49
2022-12-25T19:17:16.032Z,9.38
2022-12-25T19:19:43.735Z,9.47
2022-12-25T19:22:10.918Z,9.63
2022-12-25T19:24:39.005Z,9.73
2022-12-25T19:27:06.215Z,9.53
2022-12-25T19:29:33.642Z,9.68
2022-12-25T19:32:00.893Z,9.57
2022-12-25T19:34:28.397Z,9.58
2022-12-25T19:36:55.661Z,9.49
2022-12-25T19:39:24.002Z,9.48
2022-12-25T19:41:51.076Z,9.36
2022-12-25T19:44:18.728Z,9.48
2022-12-25T19:46:45.838Z,9.42
2022-12-25T19:49:14.072Z,9.58
2022-12-25T19:51:44.531Z,9.58
2022-12-25T19:54:15.260Z,9.61
2022-12-25T19:56:44.090Z,9.55
2022-12-25T19:59:13.163Z,9.36
2022-12-25T20:01:40.772Z,9.31
2022-12-25T20:04:10.674Z,9.25
2022-12-25T20:06:39.756Z,9.24
2022-12-25T20:09:11.391Z,9.48
2022-12-25T20:11:38.754Z,9.37
2022-12-25T20:14:08.056Z,9.36
2022-12-25T20:16:39.187Z,9.23
2022-12-25T20:19:07.486Z,9.32
2022-12-25T20:21:34.639Z,9.29
2022-12-25T20:24:02.229Z,9.12
2022-12-25T20:26:31.044Z,9.20
2022-12-25T20:28:59.197Z,9.19
2022-12-25T20:31:29.582Z,9.21
2022-12-25T20:34:00.021Z,9.35
2022-12-25T20:36:32.651Z,9.43
2022-12-25T20:39:04.839Z,9.30
2022-12-25T20:41:32.354Z,9.52
2022-12-25T20:44:01.912Z,9.53
2022-12-25T20:46:29.255Z,9.55
2022-12-25T20:48:56.873Z,9.51
2022-12-25T20:51:26.412Z,9.35
2022-12-25T20:53:56.451Z,9.49
2022-12-25T20:56:26.859Z,9.33
2022-12-25T20:58:58.872Z,9.44
2022-12-25T21:01:30.892Z,9.29
2022-12-25T21:04:17.236Z,9.27
2022-12-25T21:06:44.430Z,9.27
2022-12-25T21:09:13.479Z,9.22
2022-12-25T21:11:40.618Z,9.25
2022-12-25T21:14:09.172Z,9.14
2022-12-25T21:16:38.598Z,9.20
2022-12-25T21:19:06.131Z,9.15
2022-12-25T21:21:33.591Z,9.25
2022-12-25T21:24:01.133Z,9.23
2022-12-25T21:26:31.521Z,9.46
2022-12-25T21:29:02.236Z,9.40
2022-12-25T21:31:30.782Z,9.26
2022-12-25T21:33:58.327Z,9.27
2022-12-25T21:36:27.564Z,9.28
2022-12-25T21:38:59.854Z,9.35
2022-12-25T21:41:29.018Z,9.47
2022-12-25T21:43:59.122Z,9.54
2022-12-25T21:46:27.280Z,9.40
2022-12-25T21:48:55.507Z,9.49
2022-12-25T21:51:49.918Z,9.42
2022-12-25T21:54:19.642Z,9.55
2022-12-25T21:56:48.543Z,9.34
2022-12-25T21:59:21.096Z,9.21
2022-12-25T22:01:49.872Z,9.17
2022-12-25T22:04:20.528Z,9.13
2022-12-25T22:07:06.541Z,9.17
2022-12-25T22:09:34.486Z,9.14
2022-12-25T22:12:20.617Z,9.08
2022-12-25T22:14:54.961Z,9.03
2022-12-25T22:17:50.577Z,9.04
2022-12-25T22:20:30.856Z,9.04
2022-12-25T22:22:58.547Z,9.07
2022-12-25T22:25:26.572Z,9.29
2022-12-25T22:27:54.294Z,9.05
2022-12-25T22:30:26.646Z,8.86
2022-12-25T22:32:53.850Z,8.92
2022-12-25T22:35:21.963Z,8.97
2022-12-25T22:37:49.824Z,9.19
2022-12-25T22:40:19.057Z,8.99
2022-12-25T22:42:46.767Z,8.80
2022-12-25T22:45:14.469Z,8.68
2022-12-25T22:47:41.940Z,8.57
2022-12-25T22:50:12.217Z,8.57
2022-12-25T22:52:40.195Z,8.61
2022-12-25T22:55:09.059Z,8.76
2022-12-25T22:57:37.307Z,8.62
2022-12-25T23:00:09.185Z,8.77
2022-12-25T23:02:37.096Z,8.87
2022-12-25T23:05:05.076Z,8.74
2022-12-25T23:07:32.271Z,8.72
2022-12-25T23:09:59.755Z,8.63
2022-12-25T23:12:45.484Z,8.86
2022-12-25T23:15:12.962Z,8.85
2022-12-25T23:17:58.633Z,8.74
2022-12-25T23:20:46.316Z,8.84
2022-12-25T23:23:34.830Z,8.87
2022-12-25T23:26:09.467Z,8.90
2022-12-25T23:28:57.418Z,8.88
2022-12-25T23:31:32.761Z,8.75
2022-12-25T23:34:00.589Z,8.81
2022-12-25T23:36:28.485Z,8.68
2022-12-25T23:38:55.648Z,8.71
2022-12-25T23:41:23.308Z,8.64
2022-12-25T23:43:50.858Z,8.67
2022-12-25T23:46:18.283Z,8.45
2022-12-25T23:48:48.165Z,8.35
2022-12-25T23:51:17.211Z,8.27
2022-12-25T23:53:44.559Z,8.22
2022-12-25T23:56:12.145Z,8.22
2022-12-25T23:58:40.392Z,8.21
